Atlantic Beach, New York
Current Conditions -  °F | °C
As of 3:51 AM on Wednesday 22 Oct 2014 (Local Time) from KJFK Reporting Station
Thunderstorm Thunderstorm  
Wind Chill: 56°   Ceiling: 4300
Heat Index: 56°   Visibility: 5mi
Dew Point: 52°   Wind: 14mph
Humidity: 87%   Direction: 70°ENE
Pressure: 29.88"   Gusts: NA
Location:  40.59°N, 73.73°W
Report Text: KJFK 220751Z 07012KT 5SM +TSRA BR FEW007 OVC043CB 13/11 A2988 RMK AO2 SLP119 FRQ LTGICCCCA NE-SE TS NE-SE MOV NW P0028 T01330111 $
Loading
Personal Weather Stations






























Interactive Weather Map
Tropical Storm Tracking
New forecast layout! Learn more

10-Day Weather Forecast

Advertisements
Track Severe Weather on mobile